createdAt,value
2022-11-24T00:04:04.474Z,94.55
2022-11-24T00:09:06.780Z,94.49
2022-11-24T00:14:08.856Z,94.42
2022-11-24T00:19:12.009Z,94.96
2022-11-24T00:24:16.411Z,94.87
2022-11-24T00:29:18.181Z,95.00
2022-11-24T00:34:19.827Z,95.34
2022-11-24T00:39:21.501Z,95.37
2022-11-24T00:44:23.274Z,94.79
2022-11-24T00:49:24.949Z,95.53
2022-11-24T00:54:26.558Z,95.45
2022-11-24T00:59:28.259Z,95.54
2022-11-24T01:04:29.913Z,95.16
2022-11-24T01:09:31.528Z,95.06
2022-11-24T01:14:33.848Z,94.77
2022-11-24T01:19:35.688Z,95.47
2022-11-24T01:24:37.383Z,94.76
2022-11-24T01:29:39.143Z,94.70
2022-11-24T01:34:40.832Z,95.35
2022-11-24T01:39:42.527Z,95.64
2022-11-24T01:44:44.350Z,95.65
2022-11-24T01:49:52.034Z,95.80
2022-11-24T01:54:55.754Z,95.22
2022-11-24T02:00:04.147Z,95.35
2022-11-24T02:05:20.503Z,95.78
2022-11-24T02:10:22.491Z,95.49
2022-11-24T02:15:24.364Z,95.25
2022-11-24T02:20:26.545Z,95.14
2022-11-24T02:25:56.515Z,95.49
2022-11-24T02:30:59.354Z,95.17
2022-11-24T02:36:01.091Z,95.83
2022-11-24T02:41:11.509Z,95.52
2022-11-24T02:46:13.246Z,95.16
2022-11-24T02:51:15.064Z,95.85
2022-11-24T02:56:16.736Z,94.97
2022-11-24T03:01:18.415Z,95.01
2022-11-24T03:06:20.129Z,94.95
2022-11-24T03:11:21.797Z,95.10
2022-11-24T03:16:23.815Z,95.07
2022-11-24T03:21:25.466Z,95.21
2022-11-24T03:26:28.016Z,95.13
2022-11-24T03:31:29.729Z,95.56
2022-11-24T03:36:31.515Z,95.12
2022-11-24T03:41:33.355Z,95.79
2022-11-24T03:46:35.244Z,95.79
2022-11-24T03:51:37.002Z,96.21
2022-11-24T03:56:38.597Z,96.27
2022-11-24T04:01:40.307Z,95.96
2022-11-24T04:06:42.032Z,96.19
2022-11-24T04:12:02.285Z,95.17
2022-11-24T04:17:04.333Z,94.95
2022-11-24T04:22:06.102Z,95.34
2022-11-24T04:27:07.791Z,96.07
2022-11-24T04:32:12.351Z,96.66
2022-11-24T04:37:14.079Z,95.67
2022-11-24T04:42:16.013Z,95.64
2022-11-24T04:47:22.801Z,95.29
2022-11-24T04:52:25.595Z,95.12
2022-11-24T04:57:27.682Z,94.68
2022-11-24T05:02:29.363Z,94.45
2022-11-24T05:07:31.240Z,95.85
2022-11-24T05:12:33.688Z,95.65
2022-11-24T05:17:37.522Z,94.98
2022-11-24T05:22:39.212Z,94.50
2022-11-24T05:27:41.125Z,95.01
2022-11-24T05:32:42.823Z,95.38
2022-11-24T05:37:44.685Z,94.38
2022-11-24T05:42:48.215Z,94.79
2022-11-24T05:47:51.463Z,94.83
2022-11-24T05:52:53.127Z,95.01
2022-11-24T05:57:59.311Z,94.30
2022-11-24T06:03:01.399Z,94.65
2022-11-24T06:08:03.243Z,94.08
2022-11-24T06:13:06.612Z,93.58
2022-11-24T06:18:08.282Z,93.79
2022-11-24T06:23:10.245Z,93.45
2022-11-24T06:28:12.399Z,93.06
2022-11-24T06:33:14.402Z,93.34
2022-11-24T06:38:20.133Z,93.22
2022-11-24T06:43:27.500Z,93.50
2022-11-24T06:48:29.901Z,93.38
2022-11-24T06:53:38.551Z,92.78
2022-11-24T06:58:42.062Z,93.33
2022-11-24T07:03:43.754Z,93.02
2022-11-24T07:08:46.044Z,92.90
2022-11-24T07:13:48.079Z,92.68
2022-11-24T07:18:51.360Z,92.97
2022-11-24T07:23:55.035Z,93.17
2022-11-24T07:28:56.708Z,93.48
2022-11-24T07:33:58.458Z,93.26
2022-11-24T07:39:00.268Z,93.47
2022-11-24T07:44:02.383Z,94.00
2022-11-24T07:49:04.158Z,94.11
2022-11-24T07:54:05.931Z,93.99
2022-11-24T07:59:07.859Z,94.06
2022-11-24T08:04:09.624Z,93.72
2022-11-24T08:09:11.604Z,93.30
2022-11-24T08:14:13.271Z,93.36
2022-11-24T08:19:15.025Z,93.04
2022-11-24T08:24:17.151Z,92.69
2022-11-24T08:29:18.820Z,92.74
2022-11-24T08:34:20.509Z,92.76
2022-11-24T08:39:22.225Z,92.87
2022-11-24T08:44:24.245Z,93.11
2022-11-24T08:49:26.089Z,92.76
2022-11-24T08:54:28.072Z,93.06
2022-11-24T08:59:29.715Z,92.95
2022-11-24T09:04:31.575Z,92.83
2022-11-24T09:09:33.432Z,92.99
2022-11-24T09:14:35.228Z,92.89
2022-11-24T09:19:37.271Z,93.38
2022-11-24T09:24:38.904Z,93.35
2022-11-24T09:29:40.544Z,92.97
2022-11-24T09:34:42.216Z,92.67
2022-11-24T09:39:43.944Z,92.28
2022-11-24T09:45:10.603Z,91.72
2022-11-24T09:50:18.607Z,91.35
2022-11-24T09:55:35.621Z,91.50
2022-11-24T10:00:37.491Z,91.24
2022-11-24T10:05:39.287Z,91.31
2022-11-24T10:10:52.364Z,91.44
2022-11-24T10:15:57.063Z,92.29
2022-11-24T10:21:10.762Z,91.96
2022-11-24T10:26:30.239Z,91.91
2022-11-24T10:31:43.371Z,91.88
2022-11-24T10:36:55.191Z,92.32
2022-11-24T10:42:19.654Z,92.40
2022-11-24T10:47:22.823Z,92.49
2022-11-24T10:52:25.388Z,92.51
2022-11-24T10:57:31.689Z,92.47
2022-11-24T11:02:40.255Z,93.23
2022-11-24T11:07:41.998Z,93.55
2022-11-24T11:12:45.008Z,94.04
2022-11-24T11:17:46.999Z,93.61
2022-11-24T11:22:50.379Z,93.84
2022-11-24T11:28:22.375Z,91.89
2022-11-24T11:38:49.557Z,91.61
2022-11-24T11:44:00.618Z,92.19
2022-11-24T11:49:02.831Z,92.88
2022-11-24T11:54:13.455Z,93.24
2022-11-24T11:59:34.868Z,93.75
2022-11-24T12:04:48.655Z,93.53
2022-11-24T12:10:18.153Z,94.23
2022-11-24T12:15:44.459Z,93.94
2022-11-24T12:20:58.527Z,94.36
2022-11-24T12:26:17.234Z,94.22
2022-11-24T12:31:52.814Z,93.97
2022-11-24T12:37:17.677Z,93.77
2022-11-24T12:42:30.304Z,94.40
2022-11-24T12:47:58.911Z,94.16
2022-11-24T12:53:05.170Z,94.22
2022-11-24T12:58:34.926Z,94.12
2022-11-24T13:04:00.756Z,94.06
2022-11-24T13:09:10.493Z,93.67
2022-11-24T13:14:16.820Z,92.81
2022-11-24T13:19:29.602Z,92.59
2022-11-24T13:24:34.540Z,92.99
2022-11-24T13:29:37.683Z,92.99
2022-11-24T13:34:39.450Z,93.70
2022-11-24T13:39:51.234Z,93.22
2022-11-24T13:44:55.659Z,93.39
2022-11-24T13:49:57.748Z,93.38
2022-11-24T13:54:59.491Z,93.88
2022-11-24T14:00:04.739Z,94.82
2022-11-24T14:05:06.341Z,94.69
2022-11-24T14:10:15.740Z,94.97
2022-11-24T14:15:25.851Z,95.45
2022-11-24T14:20:28.425Z,95.05
2022-11-24T14:25:31.603Z,95.04
2022-11-24T14:30:33.310Z,94.93
2022-11-24T14:35:35.757Z,95.24
2022-11-24T14:40:48.438Z,94.69
2022-11-24T14:45:52.012Z,95.09
2022-11-24T14:50:55.738Z,95.01
2022-11-24T14:56:08.638Z,95.55
2022-11-24T15:01:20.832Z,95.79
2022-11-24T15:06:22.553Z,95.88
2022-11-24T15:11:24.186Z,96.60
2022-11-24T15:16:27.813Z,96.47
2022-11-24T15:21:33.782Z,96.48
2022-11-24T15:26:41.459Z,96.52
2022-11-24T15:31:47.937Z,96.41
2022-11-24T15:36:54.018Z,96.74
2022-11-24T15:41:55.715Z,96.44
2022-11-24T15:46:57.587Z,96.21
2022-11-24T15:52:00.025Z,96.25
2022-11-24T15:57:01.768Z,96.49
2022-11-24T16:02:03.508Z,96.69
2022-11-24T16:07:06.788Z,96.74
2022-11-24T16:12:08.537Z,96.99
2022-11-24T16:17:10.213Z,96.83
2022-11-24T16:22:11.937Z,97.34
2022-11-24T16:27:13.574Z,97.43
2022-11-24T16:32:15.268Z,97.22
2022-11-24T16:37:16.925Z,98.12
2022-11-24T16:42:18.614Z,98.50
2022-11-24T16:47:20.453Z,98.30
2022-11-24T16:52:22.232Z,98.65
2022-11-24T16:57:23.871Z,98.84
2022-11-24T17:02:25.897Z,98.86
2022-11-24T17:07:27.843Z,99.24
2022-11-24T17:12:29.523Z,99.42
2022-11-24T17:17:31.277Z,99.41
2022-11-24T17:22:32.928Z,99.04
2022-11-24T17:27:34.615Z,99.01
2022-11-24T17:32:36.268Z,98.99
2022-11-24T17:37:38.128Z,98.90
2022-11-24T17:42:39.799Z,98.66
2022-11-24T17:47:41.480Z,98.55
2022-11-24T17:52:43.246Z,98.70
2022-11-24T17:57:44.932Z,98.59
2022-11-24T18:02:46.629Z,98.52
2022-11-24T18:07:48.340Z,98.34
2022-11-24T18:12:50.100Z,98.36
2022-11-24T18:17:52.536Z,98.43
2022-11-24T18:23:09.315Z,98.58
2022-11-24T18:28:11.009Z,98.30
2022-11-24T18:33:12.730Z,98.32
2022-11-24T18:38:14.449Z,98.75
2022-11-24T18:43:16.101Z,99.10
2022-11-24T18:48:17.752Z,99.01
2022-11-24T18:53:20.662Z,98.93
2022-11-24T18:58:24.885Z,99.13
2022-11-24T19:03:26.483Z,99.27
2022-11-24T19:08:28.119Z,99.09
2022-11-24T19:13:29.788Z,98.96
2022-11-24T19:18:31.416Z,98.77
2022-11-24T19:23:33.037Z,99.32
2022-11-24T19:28:34.803Z,99.00
2022-11-24T19:33:36.533Z,99.32
2022-11-24T19:38:38.423Z,99.05
2022-11-24T19:43:40.998Z,99.43
2022-11-24T19:48:44.680Z,99.45
2022-11-24T19:53:46.906Z,99.53
2022-11-24T19:58:48.983Z,99.32
2022-11-24T20:04:00.664Z,99.40
2022-11-24T20:09:03.462Z,99.25
2022-11-24T20:14:06.744Z,99.47
2022-11-24T20:19:11.716Z,99.42
2022-11-24T20:24:16.155Z,99.02
2022-11-24T20:29:18.384Z,99.19
2022-11-24T20:34:20.605Z,99.04
2022-11-24T20:39:27.818Z,98.94
2022-11-24T20:44:30.266Z,99.32
2022-11-24T20:49:31.946Z,99.14
2022-11-24T20:54:33.858Z,99.27
2022-11-24T20:59:35.667Z,99.06
2022-11-24T21:04:37.514Z,99.17
2022-11-24T21:09:39.617Z,99.28
2022-11-24T21:14:41.647Z,98.97
2022-11-24T21:19:43.297Z,99.27
2022-11-24T21:24:44.974Z,99.45
2022-11-24T21:29:46.588Z,98.97
2022-11-24T21:34:48.197Z,98.89
2022-11-24T21:39:49.862Z,98.76
2022-11-24T21:44:51.503Z,98.92
2022-11-24T21:49:53.263Z,98.90
2022-11-24T21:54:54.946Z,98.81
2022-11-24T21:59:56.820Z,98.98
2022-11-24T22:04:58.441Z,98.62
2022-11-24T22:10:00.066Z,98.49
2022-11-24T22:15:01.748Z,98.78
2022-11-24T22:20:03.736Z,98.28
2022-11-24T22:25:05.938Z,98.45
2022-11-24T22:30:08.332Z,98.12
2022-11-24T22:35:09.981Z,98.23
2022-11-24T22:40:11.780Z,97.66
2022-11-24T22:45:13.429Z,97.77
2022-11-24T22:50:15.085Z,97.77
2022-11-24T22:55:16.774Z,98.00
2022-11-24T23:00:18.689Z,97.31
2022-11-24T23:05:20.985Z,98.02
2022-11-24T23:10:23.269Z,97.93
2022-11-24T23:15:24.984Z,98.26
2022-11-24T23:20:26.601Z,97.88
2022-11-24T23:25:28.216Z,98.33
2022-11-24T23:30:30.019Z,98.04
2022-11-24T23:35:33.079Z,98.30
2022-11-24T23:40:34.733Z,97.87
2022-11-24T23:45:36.462Z,98.39
2022-11-24T23:50:38.218Z,97.68
2022-11-24T23:55:39.947Z,97.38
